Cisne Branco — PWCB — position and weather

sailwx.info

Track history (hours):
 
Tides and Currents Weather Stations Pressure Air Temp Water Temp Dewpoint Dewpoint Depression Visibility Wind Speed Wind Dir Waves Ship Positions

Cisne Branco (Brazil)

Last reported at 2019-Feb-15 11:52 UTC. Time now 2019-Feb-17 15:36 UTC.
Position S 22°52' W 043°08'.

Length 78 m; draft 4.8 m.

MMSI: 710428000.

Date/timePositionNaut miles runAvg speedWind from/ knotsBaromVisibWave heightAir tempDewpointWater temp
2019-Feb-15 11:52S 22°52' W 043°08'0 0.1
2019-Feb-15 11:30S 22°52' W 043°08'1 1.4
2019-Feb-15 10:59S 22°52' W 043°09'0 0.1
2019-Feb-15 10:29S 22°51' W 043°09'0 0.1
2019-Feb-15 09:56S 22°52' W 043°09'0 0.0
2019-Feb-15 09:29S 22°52' W 043°09'0 0.0
2019-Feb-15 08:59S 22°52' W 043°09'0 0.0
2019-Feb-15 08:26S 22°52' W 043°09'0 0.0
2019-Feb-15 07:53S 22°52' W 043°09'0 0.0
2019-Feb-15 07:29S 22°52' W 043°09'0 0.0
2019-Feb-15 06:59S 22°52' W 043°09'0 0.0
2019-Feb-15 06:29S 22°52' W 043°09'0 0.0
2019-Feb-15 05:59S 22°52' W 043°09'0 0.0
2019-Feb-15 05:29S 22°52' W 043°09'0 0.0
2019-Feb-15 04:56S 22°52' W 043°09'0 0.0
2019-Feb-15 04:29S 22°52' W 043°09'0 0.0
2019-Feb-15 03:59S 22°52' W 043°09'0 0.1
2019-Feb-15 03:17S 22°51' W 043°09'0 0.1
2019-Feb-15 02:56S 22°51' W 043°09'0 0.0
2019-Feb-15 02:29S 22°51' W 043°09'0 0.0
2019-Feb-15 01:59S 22°51' W 043°09'0 0.0
2019-Feb-15 01:29S 22°51' W 043°09'0 0.0
2019-Feb-15 00:59S 22°51' W 043°09'0 0.0
2019-Feb-15 00:29S 22°51' W 043°09'0 0.0
2019-Feb-14 23:56S 22°51' W 043°09'0 0.0
2019-Feb-14 23:26S 22°51' W 043°09'0 0.0
2019-Feb-14 22:56S 22°51' W 043°09'0 0.0
2019-Feb-14 22:29S 22°51' W 043°09'0 0.1
2019-Feb-14 21:59S 22°52' W 043°09'2 5.1
2019-Feb-14 21:30S 22°54' W 043°09'4 8.3
2019-Feb-14 21:00S 22°58' W 043°07'6 7.3
2019-Feb-14 20:09S 23°03' W 043°04'1 5.1
2019-Feb-14 19:59S 23°04' W 043°04'2 2.6
2019-Feb-14 19:20S 23°05' W 043°03'2 4.5
2019-Feb-14 18:56S 23°05' W 043°04'2 3.7
2019-Feb-14 18:29S 23°03' W 043°03'1 1.8
2019-Feb-14 17:48S 23°03' W 043°04'2 5.4
2019-Feb-14 17:30S 23°02' W 043°04'3 2.4
2019-Feb-14 16:24S 23°04' W 043°04'2 5.0
2019-Feb-14 16:00S 23°02' W 043°04'4 7.7
2019-Feb-14 15:30S 22°60' W 043°07'3 5.7
2019-Feb-14 15:00S 22°57' W 043°08'2 5.0
2019-Feb-14 14:30S 22°54' W 043°09'2 4.7
2019-Feb-14 14:00S 22°52' W 043°09'  
Track history (hours):
 
Tides and Currents Weather Stations Pressure Air Temp Water Temp Dewpoint Dewpoint Depression Visibility Wind Speed Wind Dir Waves Ship Positions

Cisne Branco (Brazil)

Last reported at 2019-Feb-15 11:52 UTC. Time now 2019-Feb-17 15:36 UTC.
Position S 22°52' W 043°08'.

Length 78 m; draft 4.8 m.

MMSI: 710428000.

Date/timePositionNaut miles runAvg speedWind from/ knotsBaromVisibWave heightAir tempDewpointWater temp
2019-Feb-15 11:52S 22°52' W 043°08'0 0.1
2019-Feb-15 11:30S 22°52' W 043°08'1 1.4
2019-Feb-15 10:59S 22°52' W 043°09'0 0.1
2019-Feb-15 10:29S 22°51' W 043°09'0 0.1
2019-Feb-15 09:56S 22°52' W 043°09'0 0.0
2019-Feb-15 09:29S 22°52' W 043°09'0 0.0
2019-Feb-15 08:59S 22°52' W 043°09'0 0.0
2019-Feb-15 08:26S 22°52' W 043°09'0 0.0
2019-Feb-15 07:53S 22°52' W 043°09'0 0.0
2019-Feb-15 07:29S 22°52' W 043°09'0 0.0
2019-Feb-15 06:59S 22°52' W 043°09'0 0.0
2019-Feb-15 06:29S 22°52' W 043°09'0 0.0
2019-Feb-15 05:59S 22°52' W 043°09'0 0.0
2019-Feb-15 05:29S 22°52' W 043°09'0 0.0
2019-Feb-15 04:56S 22°52' W 043°09'0 0.0
2019-Feb-15 04:29S 22°52' W 043°09'0 0.0
2019-Feb-15 03:59S 22°52' W 043°09'0 0.1
2019-Feb-15 03:17S 22°51' W 043°09'0 0.1
2019-Feb-15 02:56S 22°51' W 043°09'0 0.0
2019-Feb-15 02:29S 22°51' W 043°09'0 0.0
2019-Feb-15 01:59S 22°51' W 043°09'0 0.0
2019-Feb-15 01:29S 22°51' W 043°09'0 0.0
2019-Feb-15 00:59S 22°51' W 043°09'0 0.0
2019-Feb-15 00:29S 22°51' W 043°09'0 0.0
2019-Feb-14 23:56S 22°51' W 043°09'0 0.0
2019-Feb-14 23:26S 22°51' W 043°09'0 0.0
2019-Feb-14 22:56S 22°51' W 043°09'0 0.0
2019-Feb-14 22:29S 22°51' W 043°09'0 0.1
2019-Feb-14 21:59S 22°52' W 043°09'2 5.1
2019-Feb-14 21:30S 22°54' W 043°09'4 8.3
2019-Feb-14 21:00S 22°58' W 043°07'6 7.3
2019-Feb-14 20:09S 23°03' W 043°04'1 5.1
2019-Feb-14 19:59S 23°04' W 043°04'2 2.6
2019-Feb-14 19:20S 23°05' W 043°03'2 4.5
2019-Feb-14 18:56S 23°05' W 043°04'2 3.7
2019-Feb-14 18:29S 23°03' W 043°03'1 1.8
2019-Feb-14 17:48S 23°03' W 043°04'2 5.4
2019-Feb-14 17:30S 23°02' W 043°04'3 2.4
2019-Feb-14 16:24S 23°04' W 043°04'2 5.0
2019-Feb-14 16:00S 23°02' W 043°04'4 7.7
2019-Feb-14 15:30S 22°60' W 043°07'3 5.7
2019-Feb-14 15:00S 22°57' W 043°08'2 5.0
2019-Feb-14 14:30S 22°54' W 043°09'2 4.7
2019-Feb-14 14:00S 22°52' W 043°09'  

Dump ship's entire track history